Time;durP1;ratioP1;P1;durP2;ratioP2;P2;SDS_P1;SDS_P2;PMS_P1;PMS_P2;Temp;Humidity;BMP_temperature;BMP_pressure;BME280_temperature;BME280_humidity;BME280_pressure;Samples;Min_cycle;Max_cycle;Signal;HPM_P1;HPM_P2
2022/05/28 00:01:00;;;;;;;10.10;2.10;;;11.90;99.90;;;;;;4949834;28;20023;-91
2022/05/28 00:03:28;;;;;;;12.77;2.40;;;11.90;99.90;;;;;;4960122;28;20447;-91
2022/05/28 00:09:15;;;;;;;11.55;2.35;;;11.90;99.90;;;;;;4958580;29;20034;-94
2022/05/28 00:11:43;;;;;;;12.02;1.92;;;11.90;99.90;;;;;;4941233;29;20031;-94
2022/05/28 00:14:10;;;;;;;12.05;2.00;;;11.90;99.90;;;;;;4935081;29;20369;-92
2022/05/28 00:16:36;;;;;;;14.38;2.42;;;11.90;99.90;;;;;;4921876;29;20432;-93
2022/05/28 00:22:24;;;;;;;20.98;1.90;;;12.00;99.90;;;;;;4941925;28;20592;-92
2022/05/28 00:24:56;;;;;;;9.77;1.90;;;12.00;99.90;;;;;;4940982;29;20035;-95
2022/05/28 00:27:22;;;;;;;15.73;2.15;;;11.90;99.90;;;;;;4941508;29;20125;-95
2022/05/28 00:29:47;;;;;;;12.15;2.67;;;11.90;99.90;;;;;;4941078;29;20113;-95
2022/05/28 00:32:25;;;;;;;12.23;2.03;;;11.90;99.90;;;;;;4940920;29;20431;-93
2022/05/28 00:35:04;;;;;;;12.35;1.85;;;11.90;99.90;;;;;;4940695;29;20051;-93
2022/05/28 00:37:30;;;;;;;10.13;2.10;;;11.90;99.90;;;;;;4946193;28;20479;-94
2022/05/28 00:39:56;;;;;;;11.60;1.95;;;11.90;99.90;;;;;;4959764;28;20038;-92
2022/05/28 00:45:46;;;;;;;12.35;1.90;;;11.90;99.90;;;;;;4977188;28;20383;-93
2022/05/28 00:51:41;;;;;;;7.90;1.92;;;11.90;99.90;;;;;;4958094;29;20109;-93
2022/05/28 00:54:51;;;;;;;11.95;2.00;;;11.80;99.90;;;;;;4940222;29;20023;-91
2022/05/28 00:57:18;;;;;;;8.30;2.10;;;11.80;99.90;;;;;;4938340;29;20574;-93
2022/05/28 00:59:45;;;;;;;10.18;2.05;;;11.80;99.90;;;;;;4921179;29;20019;-94
2022/05/28 01:06:11;;;;;;;13.88;2.83;;;11.70;99.90;;;;;;4938239;29;20562;-92
2022/05/28 01:09:05;;;;;;;14.13;2.22;;;11.70;99.90;;;;;;4921444;29;20028;-94
2022/05/28 01:11:44;;;;;;;10.48;1.95;;;11.70;99.90;;;;;;4920970;29;20122;-94
2022/05/28 01:14:38;;;;;;;13.27;1.85;;;11.60;99.90;;;;;;4929360;29;20063;-89
2022/05/28 01:17:46;;;;;;;17.67;2.80;;;11.60;99.90;;;;;;4957298;29;20058;-93
2022/05/28 01:20:59;;;;;;;9.32;1.75;;;11.60;99.90;;;;;;4971380;28;20032;-92
2022/05/28 01:23:52;;;;;;;12.35;2.33;;;11.60;99.90;;;;;;4939958;29;20023;-93
2022/05/28 01:26:43;;;;;;;9.13;2.10;;;11.60;99.90;;;;;;4940112;29;20019;-92
2022/05/28 01:29:12;;;;;;;11.05;2.55;;;11.60;99.90;;;;;;4939296;29;20521;-91
2022/05/28 01:31:38;;;;;;;10.75;2.10;;;11.60;99.90;;;;;;4956898;29;20475;-91
2022/05/28 01:34:07;;;;;;;19.25;2.55;;;11.50;99.90;;;;;;4938811;29;20023;-95
2022/05/28 01:36:37;;;;;;;12.73;2.20;;;11.60;99.90;;;;;;4928582;29;20127;-91
2022/05/28 01:39:04;;;;;;;8.50;2.30;;;11.60;99.90;;;;;;4920454;29;20032;-93
2022/05/28 01:44:52;;;;;;;10.68;1.52;;;11.60;99.90;;;;;;4937587;29;20380;-92
2022/05/28 01:47:35;;;;;;;9.48;1.70;;;11.60;99.90;;;;;;4920589;29;20080;-94
2022/05/28 01:50:03;;;;;;;13.43;2.53;;;11.60;99.90;;;;;;4920578;29;20431;-93
2022/05/28 01:52:31;;;;;;;14.43;2.47;;;11.60;99.90;;;;;;4920309;29;20032;-93
2022/05/28 01:55:08;;;;;;;11.70;2.00;;;11.60;99.90;;;;;;4936822;29;20061;-95
2022/05/28 01:57:34;;;;;;;12.68;2.00;;;11.50;99.90;;;;;;4920186;29;20472;-93
2022/05/28 01:59:59;;;;;;;9.95;1.75;;;11.50;99.90;;;;;;4920144;29;20032;-93
2022/05/28 02:02:47;;;;;;;5.05;1.35;;;11.50;99.90;;;;;;4919651;29;20369;-93
2022/05/28 02:05:13;;;;;;;8.98;1.65;;;11.50;99.90;;;;;;4937563;29;20019;-91
2022/05/28 02:07:39;;;;;;;20.73;3.03;;;11.50;99.90;;;;;;4938611;29;20108;-91
2022/05/28 02:13:43;;;;;;;7.57;1.58;;;11.40;99.90;;;;;;4955760;28;20027;-91
2022/05/28 02:16:19;;;;;;;8.73;1.42;;;11.40;99.90;;;;;;4939105;29;20030;-91
2022/05/28 02:18:50;;;;;;;9.07;1.58;;;11.40;99.90;;;;;;4938302;29;20034;-92
2022/05/28 02:21:52;;;;;;;8.07;1.60;;;11.40;99.90;;;;;;4938458;29;20027;-91
2022/05/28 02:24:24;;;;;;;11.20;2.05;;;11.30;99.90;;;;;;4937155;29;20023;-91
2022/05/28 02:26:57;;;;;;;7.80;1.58;;;11.30;99.90;;;;;;4919448;29;20024;-91
2022/05/28 02:29:42;;;;;;;14.75;2.00;;;11.30;99.90;;;;;;4920643;29;20122;-91
2022/05/28 02:32:13;;;;;;;12.00;2.27;;;11.30;99.90;;;;;;4938672;29;20087;-90
2022/05/28 02:38:41;;;;;;;10.45;2.05;;;11.20;99.90;;;;;;4955781;29;20034;-91
2022/05/28 02:41:23;;;;;;;10.50;2.25;;;11.20;99.90;;;;;;4920141;29;20062;-91
2022/05/28 02:43:49;;;;;;;11.95;1.90;;;11.20;99.90;;;;;;4936095;29;20028;-92
2022/05/28 02:46:15;;;;;;;3.88;1.30;;;11.10;99.90;;;;;;4919274;29;20051;-91
2022/05/28 02:49:19;;;;;;;6.20;1.75;;;11.10;99.90;;;;;;4919476;29;20035;-91
2022/05/28 02:51:45;;;;;;;10.63;2.17;;;11.00;99.90;;;;;;4935997;29;20391;-91
2022/05/28 02:54:10;;;;;;;4.47;1.65;;;10.90;99.90;;;;;;4919616;29;20019;-92
2022/05/28 02:59:58;;;;;;;7.60;1.75;;;10.90;99.90;;;;;;4944020;29;20038;-90
2022/05/28 03:02:27;;;;;;;5.38;1.58;;;10.80;99.90;;;;;;4927080;29;20032;-88
2022/05/28 03:04:53;;;;;;;8.00;1.98;;;10.80;99.90;;;;;;4944298;28;20023;-89
2022/05/28 03:07:19;;;;;;;4.65;1.30;;;10.60;99.90;;;;;;4967804;28;20372;-88
2022/05/28 03:09:46;;;;;;;8.43;1.40;;;10.40;99.90;;;;;;4954828;29;20062;-91
2022/05/28 03:12:11;;;;;;;5.68;1.55;;;10.10;99.90;;;;;;4951635;28;20043;-91
2022/05/28 03:14:37;;;;;;;6.03;2.03;;;9.80;99.90;;;;;;4973643;28;20030;-90
2022/05/28 03:17:20;;;;;;;11.23;1.20;;;9.60;99.90;;;;;;4922440;28;20054;-88
2022/05/28 03:19:46;;;;;;;6.38;1.00;;;9.40;99.90;;;;;;4935247;29;20032;-89
2022/05/28 03:22:11;;;;;;;1.83;0.70;;;9.30;99.90;;;;;;4918282;29;20034;-91
2022/05/28 03:24:43;;;;;;;7.88;0.90;;;9.20;99.90;;;;;;4918876;29;20078;-91
2022/05/28 03:27:09;;;;;;;4.30;0.90;;;9.20;99.90;;;;;;4956232;28;20027;-91
2022/05/28 03:29:34;;;;;;;4.00;0.93;;;9.10;99.90;;;;;;4960182;28;20113;-93
2022/05/28 03:32:22;;;;;;;7.45;1.40;;;9.10;99.90;;;;;;4958120;28;20363;-90
2022/05/28 03:35:07;;;;;;;4.13;1.48;;;9.00;99.90;;;;;;4943422;29;20533;-90
2022/05/28 03:37:33;;;;;;;10.18;1.52;;;8.90;99.90;;;;;;4932376;29;20028;-87
2022/05/28 03:39:58;;;;;;;5.07;1.13;;;8.90;99.90;;;;;;4941662;29;20495;-88
2022/05/28 03:42:24;;;;;;;4.90;1.25;;;8.90;99.90;;;;;;4957199;28;20020;-88
2022/05/28 03:44:49;;;;;;;4.45;1.42;;;9.00;99.90;;;;;;4957535;29;20023;-90
2022/05/28 03:47:15;;;;;;;16.00;2.25;;;9.10;99.90;;;;;;4960238;28;20049;-91
2022/05/28 03:50:07;;;;;;;12.65;1.23;;;9.10;99.90;;;;;;4939549;29;20610;-89
2022/05/28 03:52:33;;;;;;;5.03;1.40;;;9.10;99.90;;;;;;4941126;29;20051;-90
2022/05/28 03:54:58;;;;;;;9.20;1.58;;;9.10;99.90;;;;;;4942775;28;20043;-91
2022/05/28 03:57:37;;;;;;;6.97;1.80;;;9.10;99.90;;;;;;4942509;29;20107;-92
2022/05/28 04:00:05;;;;;;;5.13;1.42;;;9.20;99.90;;;;;;4941155;29;20027;-93
2022/05/28 04:02:30;;;;;;;7.00;1.73;;;9.10;99.90;;;;;;4945832;29;20019;-91
2022/05/28 04:05:33;;;;;;;8.55;1.40;;;9.20;99.90;;;;;;4936180;29;20031;-91
2022/05/28 04:07:58;;;;;;;6.43;1.40;;;9.20;99.90;;;;;;4927399;29;20106;-92
2022/05/28 04:10:44;;;;;;;10.52;2.40;;;9.20;99.90;;;;;;4938836;29;20055;-92
2022/05/28 04:13:09;;;;;;;5.45;1.48;;;9.30;99.90;;;;;;4937140;29;20031;-91
2022/05/28 04:15:35;;;;;;;11.10;1.85;;;9.30;99.90;;;;;;4940475;29;20360;-91
2022/05/28 04:18:07;;;;;;;8.52;1.98;;;9.30;99.90;;;;;;4957778;29;20042;-92
2022/05/28 04:20:33;;;;;;;6.57;1.60;;;9.40;99.90;;;;;;4940252;29;20110;-92
2022/05/28 04:22:59;;;;;;;11.93;2.05;;;9.50;99.90;;;;;;4936457;29;20075;-91
2022/05/28 04:26:01;;;;;;;9.13;1.85;;;9.40;99.90;;;;;;4939815;28;20031;-94
2022/05/28 04:28:27;;;;;;;8.75;1.65;;;9.40;99.90;;;;;;4922409;29;20063;-92
2022/05/28 04:30:53;;;;;;;8.93;2.53;;;9.50;99.90;;;;;;4928766;29;20031;-92
2022/05/28 04:33:38;;;;;;;6.90;2.00;;;9.50;99.90;;;;;;4941182;29;20075;-94
2022/05/28 04:36:40;;;;;;;11.57;1.90;;;9.50;99.90;;;;;;4940378;28;20407;-92
2022/05/28 04:39:06;;;;;;;22.25;2.83;;;9.60;99.90;;;;;;4941248;29;20035;-94
2022/05/28 04:41:32;;;;;;;17.10;2.35;;;9.60;99.90;;;;;;4936217;29;20082;-94
2022/05/28 04:47:19;;;;;;;23.70;2.92;;;9.80;99.90;;;;;;4957661;29;20071;-93
2022/05/28 04:49:49;;;;;;;14.60;2.08;;;9.90;99.90;;;;;;4940468;29;20031;-92
2022/05/28 04:52:15;;;;;;;18.52;2.10;;;9.90;99.90;;;;;;4957810;29;20023;-93
2022/05/28 04:54:41;;;;;;;11.93;2.42;;;10.00;99.90;;;;;;4940820;29;20038;-92
2022/05/28 04:57:22;;;;;;;24.08;2.70;;;10.00;99.90;;;;;;4958895;28;20498;-92
2022/05/28 04:59:48;;;;;;;10.02;1.83;;;10.00;99.90;;;;;;4940797;29;20031;-91
2022/05/28 05:02:15;;;;;;;10.98;2.25;;;10.10;99.90;;;;;;4955532;28;20074;-92
2022/05/28 05:08:04;;;;;;;11.23;2.40;;;10.20;99.90;;;;;;4957172;29;20106;-93
2022/05/28 05:10:29;;;;;;;10.13;2.60;;;10.20;99.90;;;;;;4940447;29;20031;-93
2022/05/28 05:13:19;;;;;;;6.78;1.88;;;10.20;99.90;;;;;;4939975;29;20024;-93
2022/05/28 05:15:44;;;;;;;13.57;2.22;;;10.10;99.90;;;;;;4950962;28;20459;-95
2022/05/28 05:18:10;;;;;;;11.75;2.70;;;10.10;99.90;;;;;;4959238;28;20118;-91
2022/05/28 05:20:55;;;;;;;13.63;3.05;;;10.10;99.90;;;;;;4959320;28;20468;-91
2022/05/28 05:23:20;;;;;;;15.65;2.25;;;10.10;99.90;;;;;;4950291;29;20418;-94
2022/05/28 05:25:46;;;;;;;10.90;3.20;;;10.10;99.90;;;;;;4939535;28;20028;-92
2022/05/28 05:28:12;;;;;;;15.85;3.33;;;10.10;99.90;;;;;;4939805;29;20030;-90
2022/05/28 05:30:38;;;;;;;15.52;3.00;;;10.10;99.90;;;;;;4957326;28;20385;-90
2022/05/28 05:33:11;;;;;;;16.55;2.17;;;10.20;99.90;;;;;;4958347;28;20029;-90
2022/05/28 05:35:38;;;;;;;12.75;2.22;;;10.10;99.90;;;;;;4942280;28;20055;-91
2022/05/28 05:38:07;;;;;;;22.40;2.63;;;10.00;99.90;;;;;;4956656;28;20031;-91
2022/05/28 05:40:39;;;;;;;19.90;2.92;;;10.00;99.90;;;;;;4945034;28;20015;-88
2022/05/28 05:43:06;;;;;;;15.60;3.00;;;10.10;99.90;;;;;;4937884;29;20390;-92
2022/05/28 05:45:32;;;;;;;11.75;1.80;;;10.10;99.90;;;;;;4946199;28;20045;-89
2022/05/28 05:47:57;;;;;;;12.57;2.40;;;10.30;99.90;;;;;;4974893;28;20030;-91
2022/05/28 05:50:23;;;;;;;24.83;4.25;;;10.40;99.90;;;;;;4943513;28;20034;-87
2022/05/28 05:52:49;;;;;;;19.65;2.80;;;10.60;99.90;;;;;;4952991;29;20079;-87
2022/05/28 05:55:34;;;;;;;16.75;2.30;;;10.70;99.90;;;;;;4924895;28;20126;-92
2022/05/28 05:58:01;;;;;;;11.82;2.47;;;10.80;99.90;;;;;;4922535;29;20042;-89
2022/05/28 06:00:26;;;;;;;19.25;2.63;;;10.80;99.90;;;;;;4952315;28;20121;-88
2022/05/28 06:02:52;;;;;;;14.65;1.92;;;10.70;99.90;;;;;;4925777;29;20527;-88
2022/05/28 06:05:18;;;;;;;12.73;2.67;;;10.70;99.90;;;;;;4962567;28;20033;-87
2022/05/28 06:07:43;;;;;;;11.90;2.28;;;10.80;99.90;;;;;;4938910;29;20019;-90
2022/05/28 06:10:19;;;;;;;8.82;2.08;;;10.90;99.90;;;;;;4943354;28;20390;-92
2022/05/28 06:12:44;;;;;;;10.25;2.47;;;10.90;99.90;;;;;;4950991;28;20033;-93
2022/05/28 06:15:10;;;;;;;15.50;2.50;;;10.90;99.90;;;;;;4939590;28;20122;-91
2022/05/28 06:17:50;;;;;;;15.85;2.38;;;10.80;99.90;;;;;;4949978;28;20031;-89
2022/05/28 06:20:16;;;;;;;11.77;2.20;;;10.80;99.90;;;;;;4951612;29;20045;-87
2022/05/28 06:22:42;;;;;;;9.35;1.40;;;10.90;99.90;;;;;;4965362;28;20095;-90
2022/05/28 06:25:08;;;;;;;19.08;2.85;;;10.90;99.90;;;;;;4940930;29;20078;-94
2022/05/28 06:27:59;;;;;;;12.73;1.83;;;10.90;99.90;;;;;;4962796;28;20026;-91
2022/05/28 06:30:25;;;;;;;12.52;3.03;;;10.90;99.90;;;;;;4946693;29;20035;-90
2022/05/28 06:32:51;;;;;;;16.00;2.20;;;10.90;99.90;;;;;;4939955;29;20034;-91
2022/05/28 06:35:16;;;;;;;15.57;2.65;;;11.00;99.90;;;;;;4937411;29;20142;-89
2022/05/28 06:37:44;;;;;;;15.68;2.58;;;11.00;99.90;;;;;;4946946;29;20027;-89
2022/05/28 06:40:10;;;;;;;13.45;2.58;;;11.20;99.90;;;;;;4969393;28;20028;-93
2022/05/28 06:42:36;;;;;;;17.98;2.22;;;11.30;99.90;;;;;;4955900;28;20085;-92
2022/05/28 06:45:34;;;;;;;17.77;3.08;;;11.30;99.90;;;;;;4949639;29;20026;-93
2022/05/28 06:47:59;;;;;;;15.38;2.50;;;11.20;99.90;;;;;;4938171;29;20054;-92
2022/05/28 06:53:09;;;;;;;15.57;2.45;;;11.10;99.90;;;;;;4957190;28;20041;-89
2022/05/28 06:55:35;;;;;;;15.52;2.33;;;11.00;99.90;;;;;;4945082;28;20034;-89
2022/05/28 06:58:02;;;;;;;8.13;2.08;;;11.00;99.90;;;;;;4971476;28;20027;-91
2022/05/28 07:00:47;;;;;;;19.48;2.50;;;11.00;99.90;;;;;;4950373;29;20015;-91
2022/05/28 07:03:15;;;;;;;15.23;2.05;;;11.10;99.90;;;;;;4940471;28;20083;-88
2022/05/28 07:05:42;;;;;;;7.18;2.03;;;11.10;99.90;;;;;;4956242;28;20037;-89
2022/05/28 07:08:08;;;;;;;18.42;2.20;;;11.20;99.90;;;;;;4959401;28;20027;-90
2022/05/28 07:10:38;;;;;;;8.45;1.67;;;11.30;99.90;;;;;;4961363;28;20039;-93
2022/05/28 07:13:04;;;;;;;21.10;2.47;;;11.30;99.90;;;;;;4955207;28;20454;-89
2022/05/28 07:15:31;;;;;;;10.57;1.80;;;11.30;99.90;;;;;;4944160;29;20031;-89
2022/05/28 07:17:57;;;;;;;13.95;1.88;;;11.30;99.90;;;;;;4938475;29;20040;-93
2022/05/28 07:20:22;;;;;;;12.70;2.58;;;11.30;99.90;;;;;;4933025;29;20034;-93
2022/05/28 07:22:49;;;;;;;9.65;1.83;;;11.40;99.90;;;;;;4964492;28;20034;-94
2022/05/28 07:25:14;;;;;;;8.55;2.03;;;11.40;99.90;;;;;;4973071;28;20096;-92
2022/05/28 07:27:40;;;;;;;12.60;1.30;;;11.40;99.90;;;;;;4959591;28;20106;-89
2022/05/28 07:30:10;;;;;;;14.68;2.17;;;11.50;99.90;;;;;;4942529;29;20038;-93
2022/05/28 07:32:36;;;;;;;8.65;1.90;;;11.40;99.90;;;;;;4974202;28;20090;-93
2022/05/28 07:35:02;;;;;;;15.63;2.17;;;11.40;99.90;;;;;;4953548;29;20051;-91
2022/05/28 07:37:29;;;;;;;13.60;2.03;;;11.40;99.90;;;;;;4950012;28;20031;-93
2022/05/28 07:39:56;;;;;;;9.40;1.67;;;11.30;99.90;;;;;;4955051;28;20371;-94
2022/05/28 07:42:22;;;;;;;15.00;3.25;;;11.40;99.90;;;;;;4960515;28;20542;-89
2022/05/28 07:44:49;;;;;;;11.55;2.17;;;11.40;99.90;;;;;;4972886;28;20035;-90
2022/05/28 07:47:16;;;;;;;6.53;2.00;;;11.40;99.90;;;;;;4941163;29;20063;-89
2022/05/28 07:49:41;;;;;;;13.10;2.15;;;11.40;99.90;;;;;;4943569;29;20023;-91
2022/05/28 07:52:08;;;;;;;10.15;2.17;;;11.50;99.90;;;;;;4941352;28;20525;-88
2022/05/28 07:54:33;;;;;;;12.43;2.92;;;11.50;99.90;;;;;;4963659;28;20029;-89
2022/05/28 07:57:00;;;;;;;6.43;1.52;;;11.60;99.90;;;;;;4971300;28;20031;-83
2022/05/28 07:59:25;;;;;;;7.55;1.40;;;11.60;99.90;;;;;;4970244;28;20034;-83
2022/05/28 08:01:51;;;;;;;11.70;2.20;;;11.60;99.90;;;;;;4968191;28;20450;-83
2022/05/28 08:04:39;;;;;;;10.48;1.80;;;11.60;99.90;;;;;;4961242;28;20023;-84
2022/05/28 08:07:05;;;;;;;8.27;1.23;;;11.80;99.90;;;;;;4975452;28;20081;-84
2022/05/28 08:09:30;;;;;;;13.32;2.00;;;12.00;99.90;;;;;;4967849;28;20022;-83
2022/05/28 08:11:58;;;;;;;7.25;1.83;;;12.10;99.90;;;;;;4974173;28;20072;-83
2022/05/28 08:14:23;;;;;;;12.70;1.55;;;12.20;99.90;;;;;;4975618;28;20023;-83
2022/05/28 08:16:49;;;;;;;15.80;2.17;;;12.20;99.90;;;;;;4974332;28;20093;-83
2022/05/28 08:19:16;;;;;;;6.57;1.63;;;12.10;99.90;;;;;;4969282;28;20472;-83
2022/05/28 08:24:25;;;;;;;7.55;1.67;;;12.00;99.90;;;;;;4975367;28;20054;-82
2022/05/28 08:26:53;;;;;;;8.25;1.70;;;11.90;99.90;;;;;;4939685;29;20027;-84
2022/05/28 08:29:22;;;;;;;9.52;2.10;;;11.80;99.90;;;;;;4956795;29;20034;-83
2022/05/28 08:31:47;;;;;;;9.57;1.73;;;11.70;99.90;;;;;;4956088;29;20517;-83
2022/05/28 08:34:13;;;;;;;7.18;1.70;;;11.60;99.90;;;;;;4938735;29;20035;-83
2022/05/28 08:36:38;;;;;;;6.03;1.30;;;11.70;99.90;;;;;;4938854;29;20094;-83
2022/05/28 08:39:04;;;;;;;10.25;2.08;;;11.60;99.90;;;;;;4955793;29;20119;-83
2022/05/28 08:41:45;;;;;;;9.20;1.80;;;11.60;99.90;;;;;;4926833;29;20088;-82
2022/05/28 08:44:16;;;;;;;10.95;2.08;;;11.60;99.90;;;;;;4955978;29;20027;-84
2022/05/28 08:46:44;;;;;;;10.77;2.17;;;11.60;99.90;;;;;;4936519;29;20054;-82
2022/05/28 08:49:13;;;;;;;15.75;2.75;;;11.70;99.90;;;;;;4955664;29;20031;-82
2022/05/28 08:51:49;;;;;;;17.15;2.65;;;11.70;99.90;;;;;;4938625;29;20116;-82
2022/05/28 08:54:38;;;;;;;13.88;2.38;;;11.80;99.90;;;;;;4955689;29;20399;-81
2022/05/28 08:57:17;;;;;;;14.55;2.60;;;12.10;99.90;;;;;;4954798;28;20090;-83
2022/05/28 09:00:09;;;;;;;7.63;1.75;;;12.20;99.90;;;;;;4947208;28;20033;-83
2022/05/28 09:02:40;;;;;;;6.32;1.85;;;12.30;99.90;;;;;;4941709;28;20027;-82
2022/05/28 09:05:20;;;;;;;11.88;3.13;;;12.40;99.90;;;;;;4967980;28;20035;-82
2022/05/28 09:07:46;;;;;;;10.80;2.17;;;12.60;99.90;;;;;;4938268;29;20030;-83
2022/05/28 09:10:11;;;;;;;12.75;2.00;;;12.80;99.90;;;;;;4957405;28;20114;-83
2022/05/28 09:12:46;;;;;;;12.27;1.85;;;12.80;99.90;;;;;;4957601;28;20030;-82
2022/05/28 09:15:12;;;;;;;8.75;1.92;;;12.70;99.90;;;;;;4954483;28;20427;-82
2022/05/28 09:17:50;;;;;;;10.52;2.08;;;12.60;99.90;;;;;;4957352;28;20026;-82
2022/05/28 09:20:22;;;;;;;14.20;2.15;;;12.50;99.90;;;;;;4937382;29;20031;-82
2022/05/28 09:22:49;;;;;;;9.25;2.20;;;12.50;99.90;;;;;;4954541;28;20450;-82
2022/05/28 09:25:20;;;;;;;11.10;2.42;;;12.50;99.90;;;;;;4955190;29;20023;-85
2022/05/28 09:28:06;;;;;;;11.57;1.80;;;12.50;99.90;;;;;;4958309;28;20059;-84
2022/05/28 09:31:01;;;;;;;16.98;1.95;;;12.60;99.90;;;;;;4955222;29;20027;-84
2022/05/28 09:33:41;;;;;;;10.73;1.83;;;12.60;99.90;;;;;;4930667;29;20032;-84
2022/05/28 09:36:13;;;;;;;14.30;1.70;;;12.70;99.90;;;;;;4954991;29;20110;-83
2022/05/28 09:38:48;;;;;;;7.65;1.90;;;12.90;99.90;;;;;;4937626;29;20027;-86
2022/05/28 09:41:42;;;;;;;10.43;2.17;;;12.90;99.90;;;;;;4937916;29;20023;-85
2022/05/28 09:44:20;;;;;;;11.75;2.05;;;13.00;99.90;;;;;;4954777;29;20024;-84
2022/05/28 09:46:46;;;;;;;7.95;2.15;;;13.20;99.90;;;;;;4937550;29;20126;-85
2022/05/28 09:49:15;;;;;;;9.23;2.00;;;13.30;99.90;;;;;;4958122;28;20063;-88
2022/05/28 09:52:06;;;;;;;15.00;2.03;;;13.30;99.90;;;;;;4955052;29;20031;-85
2022/05/28 09:54:33;;;;;;;11.88;2.40;;;13.20;99.90;;;;;;4943742;29;20475;-85
2022/05/28 09:57:42;;;;;;;17.15;2.85;;;13.20;99.90;;;;;;4954744;29;20110;-84
2022/05/28 10:00:11;;;;;;;7.80;1.98;;;13.30;99.90;;;;;;4919206;29;20050;-84
2022/05/28 10:04:28;;;;;;;12.68;1.83;;;13.40;99.90;;;;;;4968872;28;20046;-84
2022/05/28 10:05:45;;;;;;;8.75;1.80;;;13.50;99.90;;;;;;4954203;28;20016;-84
2022/05/28 10:08:13;;;;;;;15.68;2.58;;;13.60;99.90;;;;;;4943823;28;20024;-85
2022/05/28 10:10:40;;;;;;;16.65;2.75;;;13.70;99.90;;;;;;4953396;29;20019;-87
2022/05/28 10:13:18;;;;;;;11.07;1.40;;;13.80;99.90;;;;;;4959723;28;20057;-84
2022/05/28 10:15:56;;;;;;;9.55;1.55;;;13.80;99.90;;;;;;4967654;28;20070;-85
2022/05/28 10:18:27;;;;;;;17.63;2.40;;;13.70;99.90;;;;;;4955378;28;20047;-84
2022/05/28 10:21:15;;;;;;;8.55;1.65;;;13.60;99.90;;;;;;4953804;29;20421;-86
2022/05/28 10:23:57;;;;;;;8.77;1.75;;;13.60;99.90;;;;;;4953338;29;20019;-85
2022/05/28 10:26:30;;;;;;;9.73;2.00;;;13.70;99.90;;;;;;4943749;28;20074;-84
2022/05/28 10:29:00;;;;;;;12.18;2.15;;;13.70;99.90;;;;;;4930760;28;20027;-84
2022/05/28 10:31:36;;;;;;;8.80;1.80;;;13.80;99.90;;;;;;4944849;28;20475;-84
2022/05/28 10:34:27;;;;;;;9.52;1.88;;;13.90;99.90;;;;;;4943026;28;20019;-85
2022/05/28 10:36:53;;;;;;;8.90;1.60;;;14.00;99.90;;;;;;4945420;28;21704;-86
2022/05/28 10:39:19;;;;;;;6.28;1.35;;;14.00;99.90;;;;;;4960944;28;20035;-84
2022/05/28 10:41:56;;;;;;;4.50;1.20;;;14.00;99.90;;;;;;4940733;29;20122;-85
2022/05/28 10:44:23;;;;;;;5.55;1.38;;;14.00;99.90;;;;;;4952643;28;20030;-85
2022/05/28 10:47:12;;;;;;;6.10;1.15;;;13.90;99.90;;;;;;4962684;28;20058;-85
2022/05/28 10:50:20;;;;;;;3.33;1.15;;;13.90;99.90;;;;;;4955711;28;20494;-85
2022/05/28 10:53:12;;;;;;;4.53;1.10;;;14.00;99.90;;;;;;4964731;28;20035;-86
2022/05/28 10:56:01;;;;;;;11.00;1.33;;;14.00;99.90;;;;;;4943327;28;20031;-86
2022/05/28 10:58:45;;;;;;;5.35;1.10;;;13.90;99.90;;;;;;4948888;28;20027;-85
2022/05/28 11:01:53;;;;;;;9.30;1.70;;;13.80;99.90;;;;;;4945537;28;20122;-88
2022/05/28 11:04:42;;;;;;;8.98;1.52;;;13.80;99.90;;;;;;4955951;28;20380;-87
2022/05/28 11:07:51;;;;;;;6.65;1.33;;;13.90;99.90;;;;;;4954986;28;20494;-85
2022/05/28 11:10:35;;;;;;;6.72;1.10;;;14.20;99.90;;;;;;4955532;28;20031;-87
2022/05/28 11:13:06;;;;;;;4.20;0.95;;;14.30;99.90;;;;;;4965007;28;20046;-86
2022/05/28 11:16:06;;;;;;;1.95;0.82;;;14.40;99.90;;;;;;4965061;28;20031;-87
2022/05/28 11:18:32;;;;;;;4.65;0.85;;;14.50;99.90;;;;;;4949122;28;20395;-86
2022/05/28 11:21:23;;;;;;;7.22;1.63;;;14.60;99.90;;;;;;4954006;29;20027;-86
2022/05/28 11:24:16;;;;;;;6.88;1.33;;;14.80;99.90;;;;;;4965908;28;20022;-87
2022/05/28 11:27:23;;;;;;;5.72;1.20;;;14.90;99.90;;;;;;4939479;29;20476;-86
2022/05/28 11:30:15;;;;;;;5.28;1.40;;;15.00;99.90;;;;;;4968362;28;20474;-88
2022/05/28 11:33:00;;;;;;;8.68;1.58;;;14.80;99.90;;;;;;4954338;28;20043;-84
2022/05/28 11:35:45;;;;;;;10.95;1.63;;;14.80;99.90;;;;;;4937496;28;20054;-86
2022/05/28 11:38:31;;;;;;;7.20;1.73;;;14.90;99.90;;;;;;4957100;28;20079;-87
2022/05/28 11:41:24;;;;;;;7.07;1.77;;;14.80;99.90;;;;;;4956273;28;20510;-86
2022/05/28 11:44:02;;;;;;;8.40;1.67;;;14.70;99.90;;;;;;4961681;28;20024;-85
2022/05/28 11:46:54;;;;;;;10.02;1.83;;;14.50;99.90;;;;;;4966619;28;20031;-87
2022/05/28 11:52:39;;;;;;;7.10;1.63;;;14.30;99.90;;;;;;4950369;28;20033;-86
2022/05/28 11:55:23;;;;;;;3.40;1.00;;;14.20;99.90;;;;;;4974200;28;20070;-85
2022/05/28 11:58:11;;;;;;;7.40;1.77;;;14.20;99.90;;;;;;4939627;29;20059;-86
2022/05/28 12:00:40;;;;;;;6.93;1.45;;;14.30;99.90;;;;;;4941179;29;20090;-84
2022/05/28 12:03:25;;;;;;;10.00;1.70;;;14.30;99.90;;;;;;4962063;28;20027;-86
2022/05/28 12:06:07;;;;;;;10.77;1.60;;;14.30;99.90;;;;;;4920982;29;20023;-84
2022/05/28 12:08:44;;;;;;;8.45;2.20;;;14.20;99.90;;;;;;4937800;29;20391;-84
2022/05/28 12:11:19;;;;;;;7.97;1.80;;;14.10;99.90;;;;;;4921071;29;20579;-86
2022/05/28 12:14:03;;;;;;;10.38;1.95;;;13.90;99.90;;;;;;4974726;28;20061;-86
2022/05/28 12:16:41;;;;;;;7.65;2.17;;;13.40;99.90;;;;;;4976198;28;20042;-88
2022/05/28 12:19:15;;;;;;;6.20;1.73;;;12.60;99.90;;;;;;4975952;28;20046;-87
2022/05/28 12:21:48;;;;;;;6.97;1.35;;;12.00;99.90;;;;;;4976288;28;20102;-84
2022/05/28 12:24:14;;;;;;;10.35;2.10;;;11.60;99.90;;;;;;4941131;28;20034;-84
2022/05/28 12:26:57;;;;;;;7.55;1.70;;;11.40;99.90;;;;;;4939623;29;20035;-85
2022/05/28 12:29:49;;;;;;;14.10;2.35;;;11.40;99.90;;;;;;4953924;28;20039;-85
2022/05/28 12:32:24;;;;;;;13.10;2.00;;;11.30;99.90;;;;;;4897087;29;20141;-85
2022/05/28 12:34:59;;;;;;;5.45;1.90;;;11.40;99.90;;;;;;4950242;28;20406;-84
2022/05/28 12:37:51;;;;;;;8.10;1.63;;;11.40;99.90;;;;;;4959895;28;20775;-85
2022/05/28 12:43:40;;;;;;;8.90;2.35;;;11.80;99.90;;;;;;4964343;28;20035;-85
2022/05/28 12:46:17;;;;;;;13.70;2.03;;;12.20;99.90;;;;;;4970432;28;20102;-84
2022/05/28 12:48:43;;;;;;;13.05;2.90;;;12.60;99.90;;;;;;4946336;29;20031;-87
2022/05/28 12:51:51;;;;;;;16.27;2.75;;;12.80;99.90;;;;;;4966127;28;20058;-85
2022/05/28 12:54:35;;;;;;;12.60;2.25;;;13.10;99.90;;;;;;4971712;28;20475;-87
2022/05/28 12:57:09;;;;;;;14.10;2.03;;;13.60;99.90;;;;;;4946310;28;20159;-88
2022/05/28 13:00:04;;;;;;;18.98;2.42;;;14.00;99.90;;;;;;4943547;28;20034;-86
2022/05/28 13:02:36;;;;;;;9.65;2.10;;;14.30;99.90;;;;;;4963003;28;20037;-85
2022/05/28 13:05:07;;;;;;;15.52;2.10;;;14.40;99.90;;;;;;4937715;29;20031;-85
2022/05/28 13:07:41;;;;;;;12.48;2.80;;;14.20;99.90;;;;;;4919935;29;20034;-84
2022/05/28 13:10:15;;;;;;;15.93;2.30;;;14.00;99.90;;;;;;4934889;29;20087;-84
2022/05/28 13:13:30;;;;;;;11.38;2.17;;;13.90;99.90;;;;;;4937884;29;20035;-85
2022/05/28 13:16:10;;;;;;;9.45;2.30;;;13.90;99.90;;;;;;4954643;28;20054;-85
2022/05/28 13:19:25;;;;;;;8.80;1.77;;;13.90;99.90;;;;;;4958148;28;20059;-86
2022/05/28 13:25:18;;;;;;;5.22;1.65;;;13.40;99.90;;;;;;4954505;28;20038;-85
2022/05/28 13:31:22;;;;;;;4.95;1.42;;;12.60;99.90;;;;;;4898391;29;20028;-85
2022/05/28 13:33:48;;;;;;;9.55;1.33;;;12.30;99.90;;;;;;4938505;28;20043;-85
2022/05/28 13:36:15;;;;;;;8.73;2.03;;;12.20;99.90;;;;;;4954750;28;20051;-86
2022/05/28 13:39:05;;;;;;;2.40;1.02;;;12.20;99.90;;;;;;4955394;29;20509;-86
2022/05/28 13:42:11;;;;;;;7.15;1.60;;;12.20;99.90;;;;;;4940601;28;20122;-86
2022/05/28 13:44:45;;;;;;;3.63;1.27;;;12.20;99.90;;;;;;4934790;29;20043;-86
2022/05/28 13:47:29;;;;;;;5.53;1.02;;;12.40;99.90;;;;;;4955240;28;20023;-86
2022/05/28 13:49:56;;;;;;;17.60;1.80;;;12.70;99.90;;;;;;4927373;29;20038;-85
2022/05/28 13:52:23;;;;;;;7.32;1.60;;;13.00;99.90;;;;;;4948641;28;20114;-86
2022/05/28 13:55:12;;;;;;;5.70;1.65;;;13.30;99.90;;;;;;4935556;29;20031;-86
2022/05/28 13:57:44;;;;;;;3.90;1.45;;;13.60;99.90;;;;;;4945013;28;20043;-85
2022/05/28 14:00:30;;;;;;;7.97;1.95;;;13.80;99.90;;;;;;4949384;29;20031;-87
2022/05/28 14:03:06;;;;;;;5.13;1.65;;;14.00;99.90;;;;;;4937373;29;20019;-85
2022/05/28 14:05:44;;;;;;;;;;;14.10;99.90;;;;;;4941271;29;20023;-85
2022/05/28 14:08:29;;;;;;;14.40;2.03;;;14.10;99.90;;;;;;4952524;28;20346;-85
2022/05/28 14:11:31;;;;;;;8.85;1.83;;;13.90;99.90;;;;;;4940781;28;20030;-85
2022/05/28 14:14:02;;;;;;;11.88;2.90;;;13.80;99.90;;;;;;4922927;29;20042;-86
2022/05/28 14:17:00;;;;;;;7.68;1.90;;;13.70;99.90;;;;;;4929413;28;20031;-85
2022/05/28 14:19:32;;;;;;;13.23;2.47;;;13.50;99.90;;;;;;4954074;28;20501;-85